createdAt,value
2018-04-08T00:00:31.531Z,70.26
2018-04-08T00:01:31.683Z,70.54
2018-04-08T00:02:31.832Z,70.64
2018-04-08T00:03:31.977Z,69.98
2018-04-08T00:04:32.128Z,69.98
2018-04-08T00:05:32.277Z,70.07
2018-04-08T00:06:32.424Z,70.26
2018-04-08T00:07:32.576Z,69.60
2018-04-08T00:08:32.727Z,69.88
2018-04-08T00:09:32.876Z,69.69
2018-04-08T00:10:33.023Z,70.74
2018-04-08T00:11:33.176Z,70.99
2018-04-08T00:12:33.321Z,71.84
2018-04-08T00:13:33.472Z,72.13
2018-04-08T00:14:33.629Z,72.22
2018-04-08T00:15:33.772Z,72.13
2018-04-08T00:16:33.925Z,72.79
2018-04-08T00:17:34.075Z,73.08
2018-04-08T00:18:34.225Z,73.08
2018-04-08T00:19:34.377Z,73.27
2018-04-08T00:20:34.526Z,73.84
2018-04-08T00:21:34.693Z,73.90
2018-04-08T00:22:34.825Z,73.93
2018-04-08T00:23:34.974Z,74.03
2018-04-08T00:24:35.126Z,73.36
2018-04-08T00:25:35.274Z,73.71
2018-04-08T00:26:35.422Z,74.75
2018-04-08T00:27:35.573Z,74.66
2018-04-08T00:28:35.732Z,74.56
2018-04-08T00:29:35.893Z,74.27
2018-04-08T00:30:36.040Z,74.31
2018-04-08T00:31:36.189Z,74.22
2018-04-08T00:32:36.337Z,73.55
2018-04-08T00:33:36.491Z,73.74
2018-04-08T00:34:36.637Z,73.65
2018-04-08T00:35:36.785Z,73.18
2018-04-08T00:36:36.935Z,73.27
2018-04-08T00:37:37.085Z,72.99
2018-04-08T00:38:37.232Z,72.79
2018-04-08T00:39:37.382Z,73.08
2018-04-08T00:40:37.532Z,72.41
2018-04-08T00:41:37.681Z,73.18
2018-04-08T00:42:37.836Z,72.89
2018-04-08T00:43:37.982Z,72.99
2018-04-08T00:44:38.127Z,73.46
2018-04-08T00:45:38.276Z,73.27
2018-04-08T00:46:38.426Z,73.27
2018-04-08T00:47:38.577Z,73.08
2018-04-08T00:48:38.727Z,73.46
2018-04-08T00:49:38.876Z,73.18
2018-04-08T00:50:39.027Z,73.65
2018-04-08T00:51:39.175Z,73.46
2018-04-08T00:52:39.331Z,73.93
2018-04-08T00:53:39.473Z,74.22
2018-04-08T00:54:39.621Z,74.51
2018-04-08T00:55:39.771Z,74.12
2018-04-08T00:56:39.920Z,74.22
2018-04-08T00:57:40.068Z,74.31
2018-04-08T00:58:40.218Z,74.31
2018-04-08T00:59:40.370Z,73.93
2018-04-08T01:00:40.514Z,74.31
2018-04-08T01:01:40.664Z,74.31
2018-04-08T01:02:40.813Z,74.31
2018-04-08T01:03:40.963Z,74.47
2018-04-08T01:04:41.108Z,74.31
2018-04-08T01:05:41.257Z,74.47
2018-04-08T01:06:41.404Z,74.94
2018-04-08T01:07:41.554Z,75.04
2018-04-08T01:08:41.700Z,75.51
2018-04-08T01:09:41.848Z,75.89
2018-04-08T01:10:41.994Z,75.70
2018-04-08T01:11:42.144Z,75.79
2018-04-08T01:12:42.292Z,75.51
2018-04-08T01:13:42.441Z,75.51
2018-04-08T01:14:42.586Z,75.70
2018-04-08T01:15:42.735Z,75.23
2018-04-08T01:16:42.886Z,75.79
2018-04-08T01:17:43.031Z,76.27
2018-04-08T01:18:43.180Z,75.99
2018-04-08T01:19:43.330Z,76.27
2018-04-08T01:20:43.478Z,76.37
2018-04-08T01:21:43.629Z,76.56
2018-04-08T01:22:43.773Z,75.60
2018-04-08T01:23:43.923Z,76.27
2018-04-08T01:24:44.075Z,76.18
2018-04-08T01:25:44.222Z,76.93
2018-04-08T01:26:44.373Z,76.99
2018-04-08T01:27:44.519Z,76.99
2018-04-08T01:28:44.666Z,78.23
2018-04-08T01:29:44.817Z,78.13
2018-04-08T01:30:44.969Z,78.03
2018-04-08T01:31:45.116Z,77.60
2018-04-08T01:32:45.264Z,77.41
2018-04-08T01:33:45.436Z,77.51
2018-04-08T01:34:45.559Z,77.41
2018-04-08T01:35:45.709Z,76.46
2018-04-08T01:36:45.856Z,76.65
2018-04-08T01:37:46.008Z,76.56
2018-04-08T01:38:46.157Z,77.12
2018-04-08T01:39:46.304Z,76.56
2018-04-08T01:40:46.454Z,76.93
2018-04-08T01:41:46.600Z,77.31
2018-04-08T01:42:46.750Z,77.47
2018-04-08T01:43:46.897Z,77.66
2018-04-08T01:44:47.044Z,77.79
2018-04-08T01:45:47.195Z,77.94
2018-04-08T01:46:47.344Z,77.60
2018-04-08T01:47:47.491Z,77.94
2018-04-08T01:48:47.645Z,77.84
2018-04-08T01:49:47.787Z,78.03
2018-04-08T01:50:47.936Z,77.84
2018-04-08T01:51:48.082Z,79.08
2018-04-08T01:52:48.231Z,79.36
2018-04-08T01:53:48.380Z,79.27
2018-04-08T01:54:48.531Z,79.17
2018-04-08T01:55:48.677Z,79.65
2018-04-08T01:56:48.827Z,78.42
2018-04-08T01:57:48.975Z,78.42
2018-04-08T01:58:49.122Z,78.70
2018-04-08T01:59:49.270Z,78.51
2018-04-08T02:00:49.416Z,78.61
2018-04-08T02:01:49.569Z,78.51
2018-04-08T02:02:49.715Z,78.32
2018-04-08T02:03:49.864Z,77.94
2018-04-08T02:04:50.013Z,77.94
2018-04-08T02:05:50.163Z,77.47
2018-04-08T02:06:50.316Z,77.66
2018-04-08T02:07:50.456Z,77.47
2018-04-08T02:08:50.608Z,78.70
2018-04-08T02:09:50.756Z,78.70
2018-04-08T02:10:50.905Z,78.61
2018-04-08T02:11:51.052Z,78.80
2018-04-08T02:12:51.199Z,78.89
2018-04-08T02:13:51.348Z,78.23
2018-04-08T02:14:51.496Z,78.51
2018-04-08T02:15:51.646Z,78.23
2018-04-08T02:16:51.793Z,77.84
2018-04-08T02:17:51.944Z,78.03
2018-04-08T02:18:52.090Z,77.66
2018-04-08T02:19:52.244Z,77.84
2018-04-08T02:20:52.390Z,77.37
2018-04-08T02:21:52.536Z,77.37
2018-04-08T02:22:52.687Z,76.80
2018-04-08T02:23:52.837Z,77.47
2018-04-08T02:24:52.981Z,77.37
2018-04-08T02:25:53.132Z,77.94
2018-04-08T02:26:53.282Z,77.47
2018-04-08T02:27:53.428Z,77.84
2018-04-08T02:28:53.582Z,78.42
2018-04-08T02:29:53.727Z,78.89
2018-04-08T02:30:53.880Z,78.89
2018-04-08T02:31:54.022Z,78.23
2018-04-08T02:32:54.181Z,78.99
2018-04-08T02:33:54.318Z,78.32
2018-04-08T02:34:54.467Z,78.70
2018-04-08T02:35:54.616Z,78.32
2018-04-08T02:36:54.764Z,77.75
2018-04-08T02:37:54.919Z,78.13
2018-04-08T02:38:55.065Z,77.66
2018-04-08T02:39:55.218Z,77.66
2018-04-08T02:40:55.361Z,77.94
2018-04-08T02:41:55.507Z,77.84
2018-04-08T02:42:55.657Z,78.03
2018-04-08T02:43:55.804Z,78.23
2018-04-08T02:44:55.953Z,78.99
2018-04-08T02:45:56.105Z,78.99
2018-04-08T02:46:56.258Z,79.52
2018-04-08T02:47:56.400Z,79.99
2018-04-08T02:48:56.547Z,80.37
2018-04-08T02:49:56.697Z,79.61
2018-04-08T02:50:56.843Z,80.08
2018-04-08T02:51:56.995Z,81.04
2018-04-08T02:52:57.140Z,80.56
2018-04-08T02:53:57.288Z,80.84
2018-04-08T02:54:57.437Z,81.04
2018-04-08T02:55:57.587Z,80.65
2018-04-08T02:56:57.738Z,80.94
2018-04-08T02:57:57.886Z,80.56
2018-04-08T02:58:58.035Z,80.65
2018-04-08T02:59:58.185Z,80.94
2018-04-08T03:00:58.333Z,80.75
2018-04-08T03:01:58.483Z,80.84
2018-04-08T03:02:58.631Z,80.84
2018-04-08T03:03:58.778Z,80.94
2018-04-08T03:04:58.914Z,80.65
2018-04-08T03:05:59.076Z,81.13
2018-04-08T03:06:59.223Z,80.75
2018-04-08T03:07:59.372Z,80.18
2018-04-08T03:08:59.520Z,80.27
2018-04-08T03:09:59.667Z,79.80
2018-04-08T03:10:59.819Z,79.61
2018-04-08T03:11:59.962Z,79.61
2018-04-08T03:13:00.111Z,79.61
2018-04-08T03:14:00.259Z,79.90
2018-04-08T03:15:00.408Z,79.61
2018-04-08T03:16:00.557Z,79.71
2018-04-08T03:17:00.706Z,79.52
2018-04-08T03:18:00.853Z,79.52
2018-04-08T03:19:01.000Z,78.89
2018-04-08T03:20:01.150Z,79.27
2018-04-08T03:21:01.307Z,78.89
2018-04-08T03:22:01.448Z,78.70
2018-04-08T03:23:01.595Z,78.23
2018-04-08T03:24:01.743Z,78.51
2018-04-08T03:25:01.889Z,78.23
2018-04-08T03:26:02.038Z,78.70
2018-04-08T03:27:02.188Z,78.13
2018-04-08T03:28:02.336Z,78.61
2018-04-08T03:29:02.487Z,77.56
2018-04-08T03:30:02.632Z,77.66
2018-04-08T03:31:02.790Z,78.70
2018-04-08T03:32:02.927Z,78.61
2018-04-08T03:33:03.078Z,79.27
2018-04-08T03:34:03.226Z,79.42
2018-04-08T03:35:03.374Z,79.90
2018-04-08T03:36:03.527Z,80.08
2018-04-08T03:37:03.673Z,80.56
2018-04-08T03:38:03.820Z,81.32
2018-04-08T03:39:03.972Z,81.79
2018-04-08T03:40:04.119Z,82.13
2018-04-08T03:41:04.267Z,82.42
2018-04-08T03:42:04.413Z,81.85
2018-04-08T03:43:04.561Z,81.79
2018-04-08T03:44:04.714Z,81.88
2018-04-08T03:45:04.859Z,82.23
2018-04-08T03:46:05.008Z,82.84
2018-04-08T03:47:05.155Z,82.27
2018-04-08T03:48:05.304Z,81.88
2018-04-08T03:49:05.453Z,81.88
2018-04-08T03:50:05.606Z,81.23
2018-04-08T03:51:05.752Z,81.23
2018-04-08T03:52:05.935Z,81.75
2018-04-08T03:53:06.078Z,81.09
2018-04-08T03:54:06.226Z,82.13
2018-04-08T03:55:06.375Z,82.04
2018-04-08T03:56:06.525Z,81.98
2018-04-08T03:57:06.673Z,81.70
2018-04-08T03:58:06.826Z,81.79
2018-04-08T03:59:06.966Z,81.32
2018-04-08T04:00:07.167Z,80.84
2018-04-08T04:01:07.261Z,81.04
2018-04-08T04:02:07.410Z,80.46
2018-04-08T04:03:07.558Z,80.08
2018-04-08T04:04:07.705Z,80.56
2018-04-08T04:05:07.853Z,80.56
2018-04-08T04:06:08.015Z,80.84
2018-04-08T04:07:08.149Z,80.56
2018-04-08T04:08:08.300Z,79.99
2018-04-08T04:09:08.444Z,80.99
2018-04-08T04:10:08.593Z,81.37
2018-04-08T04:11:08.740Z,81.75
2018-04-08T04:12:08.886Z,81.85
2018-04-08T04:13:09.025Z,82.23
2018-04-08T04:14:09.174Z,82.13
2018-04-08T04:15:09.319Z,81.66
2018-04-08T04:16:09.467Z,82.04
2018-04-08T04:17:09.614Z,81.37
2018-04-08T04:18:09.761Z,81.85
2018-04-08T04:19:09.910Z,82.04
2018-04-08T04:20:10.056Z,82.89
2018-04-08T04:21:10.204Z,82.98
2018-04-08T04:22:10.353Z,82.70
2018-04-08T04:23:10.501Z,82.70
2018-04-08T04:24:10.650Z,82.89
2018-04-08T04:25:10.797Z,83.27
2018-04-08T04:26:10.945Z,83.55
2018-04-08T04:27:11.093Z,84.59
2018-04-08T04:28:11.241Z,84.78
2018-04-08T04:29:11.392Z,84.88
2018-04-08T04:30:11.538Z,84.98
2018-04-08T04:31:11.690Z,84.41
2018-04-08T04:32:11.832Z,85.17
2018-04-08T04:33:11.977Z,85.55
2018-04-08T04:34:12.125Z,84.69
2018-04-08T04:35:12.274Z,84.50
2018-04-08T04:36:12.425Z,85.26
2018-04-08T04:37:12.571Z,85.07
2018-04-08T04:38:12.720Z,84.98
2018-04-08T04:39:12.867Z,84.88
2018-04-08T04:40:13.009Z,85.36
2018-04-08T04:41:13.160Z,84.88
2018-04-08T04:42:13.306Z,85.13
2018-04-08T04:43:13.454Z,85.22
2018-04-08T04:44:13.604Z,85.88
2018-04-08T04:45:13.752Z,84.88
2018-04-08T04:46:13.899Z,85.26
2018-04-08T04:47:14.048Z,85.31
2018-04-08T04:48:14.236Z,84.98
2018-04-08T04:49:14.341Z,84.65
2018-04-08T04:50:14.484Z,84.98
2018-04-08T04:51:14.676Z,84.41
2018-04-08T04:52:14.777Z,84.50
2018-04-08T04:53:14.929Z,84.78
2018-04-08T04:54:15.075Z,84.78
2018-04-08T04:55:15.220Z,84.69
2018-04-08T04:56:15.371Z,84.98
2018-04-08T04:57:15.516Z,84.22
2018-04-08T04:58:15.664Z,84.03
2018-04-08T04:59:15.810Z,83.46
2018-04-08T05:00:15.956Z,83.46
2018-04-08T05:01:16.102Z,82.79
2018-04-08T05:02:16.250Z,82.60
2018-04-08T05:03:16.404Z,82.42
2018-04-08T05:04:16.546Z,82.79
2018-04-08T05:05:16.694Z,82.60
2018-04-08T05:06:16.843Z,82.60
2018-04-08T05:07:16.993Z,82.98
2018-04-08T05:08:17.138Z,83.74
2018-04-08T05:09:17.285Z,83.84
2018-04-08T05:10:17.431Z,83.94
2018-04-08T05:11:17.583Z,83.94
2018-04-08T05:12:17.730Z,83.55
2018-04-08T05:13:17.878Z,83.17
2018-04-08T05:14:18.026Z,82.79
2018-04-08T05:15:18.172Z,82.60
2018-04-08T05:16:18.319Z,82.60
2018-04-08T05:17:18.464Z,82.98
2018-04-08T05:18:18.616Z,82.42
2018-04-08T05:19:18.761Z,83.36
2018-04-08T05:20:18.914Z,83.17
2018-04-08T05:21:19.058Z,82.70
2018-04-08T05:22:19.207Z,82.98
2018-04-08T05:23:19.354Z,83.08
2018-04-08T05:24:19.503Z,83.17
2018-04-08T05:25:19.648Z,82.79
2018-04-08T05:26:19.799Z,83.17
2018-04-08T05:27:19.946Z,82.98
2018-04-08T05:28:20.094Z,82.98
2018-04-08T05:29:20.238Z,82.79
2018-04-08T05:30:20.388Z,82.70
2018-04-08T05:31:20.537Z,83.17
2018-04-08T05:32:20.690Z,83.55
2018-04-08T05:33:20.819Z,83.94
2018-04-08T05:34:20.966Z,83.94
2018-04-08T05:35:21.114Z,84.22
2018-04-08T05:36:21.263Z,83.65
2018-04-08T05:37:21.413Z,83.08
2018-04-08T05:38:21.558Z,83.17
2018-04-08T05:39:21.708Z,82.84
2018-04-08T05:40:21.857Z,83.17
2018-04-08T05:41:22.004Z,82.74
2018-04-08T05:42:22.153Z,82.60
2018-04-08T05:43:22.301Z,83.17
2018-04-08T05:44:22.452Z,83.08
2018-04-08T05:45:22.605Z,83.36
2018-04-08T05:46:22.746Z,83.22
2018-04-08T05:47:22.893Z,83.31
2018-04-08T05:48:23.043Z,83.31
2018-04-08T05:49:23.194Z,83.12
2018-04-08T05:50:23.340Z,82.93
2018-04-08T05:51:23.487Z,82.55
2018-04-08T05:52:23.632Z,82.74
2018-04-08T05:53:23.782Z,82.84
2018-04-08T05:54:23.931Z,82.84
2018-04-08T05:55:24.079Z,82.84
2018-04-08T05:56:24.226Z,82.65
2018-04-08T05:57:24.373Z,82.46
2018-04-08T05:58:24.520Z,83.03
2018-04-08T05:59:24.676Z,82.65
2018-04-08T06:00:24.817Z,82.55
2018-04-08T06:01:24.966Z,82.74
2018-04-08T06:02:25.113Z,82.74
2018-04-08T06:03:25.260Z,82.65
2018-04-08T06:04:25.415Z,82.65
2018-04-08T06:05:25.559Z,83.22
2018-04-08T06:06:25.710Z,82.12
2018-04-08T06:07:25.858Z,81.84
2018-04-08T06:08:26.008Z,81.74
2018-04-08T06:09:26.158Z,81.84
2018-04-08T06:10:26.308Z,81.26
2018-04-08T06:11:26.460Z,82.12
2018-04-08T06:12:26.607Z,81.93
2018-04-08T06:13:26.776Z,81.65
2018-04-08T06:14:26.909Z,81.65
2018-04-08T06:15:27.061Z,82.03
2018-04-08T06:16:27.210Z,82.03
2018-04-08T06:17:27.361Z,81.74
2018-04-08T06:18:27.509Z,81.26
2018-04-08T06:19:27.656Z,80.98
2018-04-08T06:20:27.804Z,81.65
2018-04-08T06:21:27.955Z,81.36
2018-04-08T06:22:28.102Z,81.40
2018-04-08T06:23:28.249Z,80.74
2018-04-08T06:24:28.399Z,81.17
2018-04-08T06:25:28.549Z,81.07
2018-04-08T06:26:28.697Z,80.88
2018-04-08T06:27:28.847Z,80.83
2018-04-08T06:28:28.997Z,80.93
2018-04-08T06:29:29.146Z,80.93
2018-04-08T06:30:29.296Z,81.97
2018-04-08T06:31:29.446Z,81.59
2018-04-08T06:32:29.598Z,81.30
2018-04-08T06:33:29.748Z,81.59
2018-04-08T06:34:29.899Z,80.74
2018-04-08T06:35:30.051Z,80.74
2018-04-08T06:36:30.199Z,80.83
2018-04-08T06:37:30.347Z,81.40
2018-04-08T06:38:30.500Z,80.83
2018-04-08T06:39:30.660Z,80.64
2018-04-08T06:40:30.796Z,80.35
2018-04-08T06:41:30.944Z,79.97
2018-04-08T06:42:31.097Z,79.25
2018-04-08T06:43:31.282Z,78.17
2018-04-08T06:44:31.395Z,78.11
2018-04-08T06:45:31.545Z,77.92
2018-04-08T06:46:31.690Z,78.11
2018-04-08T06:47:31.842Z,78.11
2018-04-08T06:48:31.988Z,77.55
2018-04-08T06:49:32.141Z,77.83
2018-04-08T06:50:32.288Z,77.55
2018-04-08T06:51:32.442Z,77.92
2018-04-08T06:52:32.591Z,77.55
2018-04-08T06:53:32.743Z,77.07
2018-04-08T06:54:32.894Z,76.88
2018-04-08T06:55:33.044Z,76.69
2018-04-08T06:56:33.195Z,76.12
2018-04-08T06:57:33.351Z,76.59
2018-04-08T06:58:33.496Z,76.21
2018-04-08T06:59:33.645Z,76.50
2018-04-08T07:00:33.793Z,75.64
2018-04-08T07:01:33.946Z,75.21
2018-04-08T07:02:34.097Z,75.68
2018-04-08T07:03:34.250Z,75.78
2018-04-08T07:04:34.397Z,75.78
2018-04-08T07:05:34.552Z,75.87
2018-04-08T07:06:34.697Z,75.30
2018-04-08T07:07:34.846Z,74.44
2018-04-08T07:08:34.996Z,74.82
2018-04-08T07:09:35.146Z,75.62
2018-04-08T07:10:35.296Z,74.96
2018-04-08T07:11:35.448Z,75.24
2018-04-08T07:12:35.601Z,74.67
2018-04-08T07:13:35.753Z,74.39
2018-04-08T07:14:35.892Z,73.34
2018-04-08T07:15:36.074Z,72.81
2018-04-08T07:16:36.222Z,72.62
2018-04-08T07:17:36.372Z,71.67
2018-04-08T07:18:36.581Z,71.86
2018-04-08T07:19:36.673Z,71.76
2018-04-08T07:20:36.825Z,71.00
2018-04-08T07:21:36.979Z,71.09
2018-04-08T07:22:37.128Z,70.81
2018-04-08T07:23:37.277Z,70.52
2018-04-08T07:24:37.501Z,70.24
2018-04-08T07:25:37.577Z,70.18
2018-04-08T07:26:37.726Z,70.56
2018-04-08T07:27:37.879Z,70.08
2018-04-08T07:28:38.027Z,69.04
2018-04-08T07:29:38.179Z,69.42
2018-04-08T07:30:38.330Z,69.13
2018-04-08T07:31:38.481Z,69.51
2018-04-08T07:32:38.645Z,68.37
2018-04-08T07:33:38.781Z,69.64
2018-04-08T07:34:38.932Z,69.35
2018-04-08T07:35:39.085Z,69.54
2018-04-08T07:36:39.233Z,68.59
2018-04-08T07:37:39.388Z,67.07
2018-04-08T07:38:39.539Z,66.69
2018-04-08T07:39:39.690Z,67.45
2018-04-08T07:40:39.842Z,67.55
2018-04-08T07:41:39.994Z,66.78
2018-04-08T07:42:40.144Z,66.69
2018-04-08T07:43:40.294Z,66.88
2018-04-08T07:44:40.446Z,66.31
2018-04-08T07:45:40.598Z,66.72
2018-04-08T07:46:40.748Z,66.15
2018-04-08T07:47:40.900Z,66.15
2018-04-08T07:48:41.052Z,65.10
2018-04-08T07:49:41.204Z,65.20
2018-04-08T07:50:41.356Z,64.91
2018-04-08T07:51:41.516Z,64.43
2018-04-08T07:52:41.675Z,64.15
2018-04-08T07:53:41.815Z,64.53
2018-04-08T07:54:42.021Z,65.23
2018-04-08T07:55:42.159Z,64.75
2018-04-08T07:56:42.329Z,64.37
2018-04-08T07:57:42.469Z,64.56
2018-04-08T07:58:42.621Z,64.37
2018-04-08T07:59:42.776Z,64.56
2018-04-08T08:00:42.929Z,64.47
2018-04-08T08:01:43.081Z,65.23
2018-04-08T08:02:43.235Z,64.65
2018-04-08T08:03:43.381Z,65.04
2018-04-08T08:04:43.533Z,63.32
2018-04-08T08:05:43.690Z,63.54
2018-04-08T08:06:43.841Z,63.73
2018-04-08T08:07:43.994Z,64.59
2018-04-08T08:08:44.156Z,64.59
2018-04-08T08:09:44.304Z,63.73
2018-04-08T08:10:44.459Z,63.67
2018-04-08T08:11:44.611Z,63.48
2018-04-08T08:12:44.767Z,63.39
2018-04-08T08:13:44.923Z,62.15
2018-04-08T08:14:45.074Z,61.86
2018-04-08T08:15:45.229Z,61.76
2018-04-08T08:16:45.627Z,62.15
2018-04-08T08:17:45.582Z,62.05
2018-04-08T08:18:45.758Z,61.13
2018-04-08T08:19:45.876Z,61.69
2018-04-08T08:20:46.027Z,61.79
2018-04-08T08:21:46.193Z,61.13
2018-04-08T08:22:46.325Z,60.93
2018-04-08T08:23:46.475Z,60.55
2018-04-08T08:24:46.628Z,60.10
2018-04-08T08:25:46.781Z,59.72
2018-04-08T08:26:46.934Z,59.34
2018-04-08T08:27:47.087Z,59.91
2018-04-08T08:28:47.240Z,59.75
2018-04-08T08:29:47.391Z,59.27
2018-04-08T08:30:47.553Z,58.61
2018-04-08T08:31:47.704Z,58.61
2018-04-08T08:32:47.858Z,58.12
2018-04-08T08:33:48.013Z,58.22
2018-04-08T08:34:48.167Z,57.75
2018-04-08T08:35:48.323Z,57.93
2018-04-08T08:36:48.476Z,57.68
2018-04-08T08:37:48.627Z,57.20
2018-04-08T08:38:48.782Z,57.20
2018-04-08T08:39:48.938Z,57.20
2018-04-08T08:40:49.090Z,57.48
2018-04-08T08:41:49.247Z,57.87
2018-04-08T08:42:49.417Z,56.37
2018-04-08T08:43:49.566Z,56.56
2018-04-08T08:44:49.720Z,55.22
2018-04-08T08:45:49.875Z,55.88
2018-04-08T08:46:50.027Z,54.86
2018-04-08T08:47:50.181Z,54.67
2018-04-08T08:48:50.336Z,52.95
2018-04-08T08:49:50.490Z,52.95
2018-04-08T08:50:50.646Z,53.71
2018-04-08T08:51:50.800Z,52.75
2018-04-08T08:52:50.957Z,52.75
2018-04-08T08:53:51.110Z,52.18
2018-04-08T08:54:51.312Z,51.61
2018-04-08T08:55:51.420Z,51.61
2018-04-08T08:56:51.575Z,51.32
2018-04-08T08:57:51.731Z,52.09
2018-04-08T08:58:51.886Z,51.13
2018-04-08T08:59:52.045Z,51.89
2018-04-08T09:00:52.198Z,51.92
2018-04-08T09:01:52.354Z,51.13
2018-04-08T09:02:52.510Z,51.63
2018-04-08T09:03:52.663Z,51.54
2018-04-08T09:04:54.422Z,51.44
2018-04-08T09:05:52.999Z,51.34
2018-04-08T09:06:53.196Z,51.25
2018-04-08T09:07:53.296Z,51.06
2018-04-08T09:08:53.457Z,52.69
2018-04-08T09:09:53.617Z,51.08
2018-04-08T09:10:53.775Z,50.60
2018-04-08T09:11:53.930Z,50.32
2018-04-08T09:12:54.086Z,51.18
2018-04-08T09:13:54.241Z,52.23
2018-04-08T09:14:54.388Z,51.28
2018-04-08T09:15:54.546Z,50.70
2018-04-08T09:16:54.701Z,51.08
2018-04-08T09:17:54.857Z,51.56
2018-04-08T09:18:55.011Z,50.22
2018-04-08T09:19:55.166Z,51.40
2018-04-08T09:20:55.322Z,50.99
2018-04-08T09:21:55.477Z,50.51
2018-04-08T09:22:55.632Z,50.12
2018-04-08T09:23:55.784Z,49.74
2018-04-08T09:24:55.939Z,49.57
2018-04-08T09:25:56.094Z,49.38
2018-04-08T09:26:56.251Z,49.48
2018-04-08T09:27:56.411Z,48.90
2018-04-08T09:28:56.564Z,48.43
2018-04-08T09:29:56.719Z,48.64
2018-04-08T09:30:56.877Z,48.93
2018-04-08T09:31:57.063Z,48.44
2018-04-08T09:32:57.189Z,48.44
2018-04-08T09:33:57.346Z,48.16
2018-04-08T09:34:57.500Z,48.07
2018-04-08T09:35:57.657Z,48.85
2018-04-08T09:36:57.813Z,47.80
2018-04-08T09:37:57.968Z,47.61
2018-04-08T09:38:58.127Z,47.61
2018-04-08T09:39:58.281Z,47.61
2018-04-08T09:40:58.436Z,49.43
2018-04-08T09:41:58.596Z,47.99
2018-04-08T09:42:58.751Z,47.41
2018-04-08T09:43:58.910Z,48.09
2018-04-08T09:44:59.067Z,47.72
2018-04-08T09:45:59.228Z,47.34
2018-04-08T09:46:59.385Z,46.28
2018-04-08T09:47:59.543Z,46.48
2018-04-08T09:48:59.701Z,46.58
2018-04-08T09:49:59.859Z,45.90
2018-04-08T09:51:00.022Z,45.32
2018-04-08T09:52:00.176Z,47.36
2018-04-08T09:53:00.332Z,46.12
2018-04-08T09:54:00.488Z,45.45
2018-04-08T09:55:00.671Z,46.31
2018-04-08T09:56:00.804Z,46.31
2018-04-08T09:57:00.961Z,46.31
2018-04-08T09:58:01.127Z,46.02
2018-04-08T09:59:01.276Z,45.92
2018-04-08T10:00:01.433Z,46.12
2018-04-08T10:01:01.590Z,46.59
2018-04-08T10:02:01.748Z,45.06
2018-04-08T10:03:01.907Z,44.68
2018-04-08T10:04:02.177Z,46.14
2018-04-08T10:05:02.218Z,45.95
2018-04-08T10:06:02.378Z,44.99
2018-04-08T10:07:02.536Z,44.02
2018-04-08T10:08:02.692Z,44.89
2018-04-08T10:09:02.847Z,43.95
2018-04-08T10:10:03.009Z,43.85
2018-04-08T10:11:03.165Z,43.18
2018-04-08T10:12:03.328Z,44.34
2018-04-08T10:13:03.514Z,44.43
2018-04-08T10:14:03.641Z,44.72
2018-04-08T10:15:03.798Z,42.80
2018-04-08T10:16:03.957Z,43.28
2018-04-08T10:17:04.116Z,44.14
2018-04-08T10:18:04.278Z,44.53
2018-04-08T10:19:04.436Z,43.85
2018-04-08T10:20:04.594Z,43.88
2018-04-08T10:21:04.752Z,44.35
2018-04-08T10:22:04.909Z,44.65
2018-04-08T10:23:05.070Z,43.08
2018-04-08T10:24:05.230Z,43.11
2018-04-08T10:25:05.385Z,42.72
2018-04-08T10:26:05.547Z,41.76
2018-04-08T10:27:05.705Z,42.72
2018-04-08T10:28:05.861Z,42.82
2018-04-08T10:29:06.099Z,43.59
2018-04-08T10:30:06.189Z,43.01
2018-04-08T10:31:06.346Z,42.93
2018-04-08T10:32:06.504Z,42.84
2018-04-08T10:33:06.664Z,41.78
2018-04-08T10:34:06.825Z,41.86
2018-04-08T10:35:06.982Z,41.78
2018-04-08T10:36:07.139Z,41.49
2018-04-08T10:37:07.308Z,41.39
2018-04-08T10:38:07.459Z,41.01
2018-04-08T10:39:07.619Z,42.07
2018-04-08T10:40:07.776Z,41.78
2018-04-08T10:41:07.935Z,41.49
2018-04-08T10:42:08.096Z,41.22
2018-04-08T10:43:08.253Z,40.94
2018-04-08T10:44:08.412Z,39.59
2018-04-08T10:45:08.574Z,39.97
2018-04-08T10:46:08.733Z,39.76
2018-04-08T10:47:08.890Z,40.63
2018-04-08T10:48:09.051Z,40.94
2018-04-08T10:49:09.212Z,40.91
2018-04-08T10:50:09.371Z,39.59
2018-04-08T10:51:09.526Z,39.87
2018-04-08T10:52:09.689Z,40.74
2018-04-08T10:53:09.845Z,40.84
2018-04-08T10:54:10.002Z,39.97
2018-04-08T10:55:10.163Z,39.39
2018-04-08T10:56:10.321Z,40.45
2018-04-08T10:57:10.479Z,40.64
2018-04-08T10:58:10.663Z,39.22
2018-04-08T10:59:10.798Z,39.22
2018-04-08T11:00:10.956Z,38.93
2018-04-08T11:01:11.118Z,39.61
2018-04-08T11:02:11.274Z,39.87
2018-04-08T11:03:11.441Z,39.78
2018-04-08T11:04:11.595Z,39.68
2018-04-08T11:05:11.753Z,39.20
2018-04-08T11:06:11.913Z,39.49
2018-04-08T11:07:12.072Z,39.99
2018-04-08T11:08:12.234Z,39.41
2018-04-08T11:09:12.429Z,39.89
2018-04-08T11:10:12.609Z,39.34
2018-04-08T11:11:12.717Z,38.18
2018-04-08T11:12:12.872Z,40.97
2018-04-08T11:13:13.031Z,37.96
2018-04-08T11:14:13.190Z,37.89
2018-04-08T11:15:13.351Z,38.08
2018-04-08T11:16:13.534Z,37.77
2018-04-08T11:17:13.686Z,37.96
2018-04-08T11:18:13.848Z,39.53
2018-04-08T11:19:14.007Z,39.53
2018-04-08T11:20:14.167Z,38.46
2018-04-08T11:21:14.332Z,39.53
2018-04-08T11:22:14.490Z,35.48
2018-04-08T11:23:14.649Z,34.88
2018-04-08T11:24:14.813Z,36.15
2018-04-08T11:25:14.976Z,35.28
2018-04-08T11:26:15.136Z,35.02
2018-04-08T11:27:15.298Z,35.02
2018-04-08T11:28:15.458Z,34.92
2018-04-08T11:29:15.620Z,34.64
2018-04-08T11:30:15.779Z,34.92
2018-04-08T11:31:15.940Z,35.32
2018-04-08T11:32:16.101Z,35.42
2018-04-08T11:33:16.260Z,35.61
2018-04-08T11:34:16.423Z,36.09
2018-04-08T11:35:16.584Z,35.13
2018-04-08T11:36:16.745Z,34.64
2018-04-08T11:37:16.903Z,34.74
2018-04-08T11:38:17.065Z,33.87
2018-04-08T11:39:17.225Z,33.39
2018-04-08T11:40:17.386Z,32.62
2018-04-08T11:41:17.546Z,32.14
2018-04-08T11:42:17.708Z,33.00
2018-04-08T11:43:17.869Z,32.91
2018-04-08T11:44:18.027Z,33.10
2018-04-08T11:45:18.192Z,33.29
2018-04-08T11:46:18.352Z,33.22
2018-04-08T11:47:18.544Z,31.57
2018-04-08T11:48:18.675Z,30.99
2018-04-08T11:49:18.835Z,31.86
2018-04-08T11:50:19.009Z,33.10
2018-04-08T11:51:19.173Z,33.98
2018-04-08T11:52:19.333Z,33.60
2018-04-08T11:53:19.494Z,33.22
2018-04-08T11:54:19.656Z,31.20
2018-04-08T11:55:19.818Z,30.82
2018-04-08T11:56:19.980Z,32.84
2018-04-08T11:57:20.143Z,33.42
2018-04-08T11:58:20.299Z,32.92
2018-04-08T11:59:20.464Z,31.96
2018-04-08T12:00:20.620Z,31.49
2018-04-08T12:01:20.786Z,32.26
2018-04-08T12:02:20.946Z,31.78
2018-04-08T12:03:21.110Z,30.33
2018-04-08T12:04:21.266Z,30.30
2018-04-08T12:05:21.425Z,31.07
2018-04-08T12:06:21.586Z,31.37
2018-04-08T12:07:21.747Z,31.65
2018-04-08T12:08:21.908Z,30.88
2018-04-08T12:09:22.074Z,31.65
2018-04-08T12:10:22.228Z,32.24
2018-04-08T12:11:22.392Z,31.86
2018-04-08T12:12:22.554Z,30.80
2018-04-08T12:13:22.703Z,31.01
2018-04-08T12:14:22.874Z,31.10
2018-04-08T12:15:23.039Z,32.07
2018-04-08T12:16:23.197Z,31.99
2018-04-08T12:17:23.360Z,30.52
2018-04-08T12:18:23.522Z,31.10
2018-04-08T12:19:23.684Z,31.40
2018-04-08T12:20:23.845Z,31.98
2018-04-08T12:21:24.007Z,31.59
2018-04-08T12:22:24.171Z,30.52
2018-04-08T12:23:24.331Z,31.88
2018-04-08T12:24:24.492Z,30.24
2018-04-08T12:25:24.651Z,28.99
2018-04-08T12:26:24.814Z,28.80
2018-04-08T12:27:24.982Z,29.38
2018-04-08T12:28:25.141Z,29.10
2018-04-08T12:29:25.300Z,29.97
2018-04-08T12:30:25.464Z,30.07
2018-04-08T12:31:25.623Z,28.04
2018-04-08T12:32:25.785Z,28.52
2018-04-08T12:33:25.948Z,27.86
2018-04-08T12:34:26.124Z,27.85
2018-04-08T12:35:26.268Z,30.46
2018-04-08T12:36:26.428Z,28.62
2018-04-08T12:37:26.589Z,28.92
2018-04-08T12:38:26.755Z,27.36
2018-04-08T12:39:26.916Z,26.59
2018-04-08T12:40:27.077Z,27.46
2018-04-08T12:41:27.243Z,27.86
2018-04-08T12:42:27.406Z,27.37
2018-04-08T12:43:27.582Z,26.99
2018-04-08T12:44:27.728Z,26.99
2018-04-08T12:45:27.890Z,24.58
2018-04-08T12:46:28.057Z,24.97
2018-04-08T12:47:28.213Z,27.09
2018-04-08T12:48:28.375Z,26.03
2018-04-08T12:49:28.537Z,23.32
2018-04-08T12:50:28.697Z,23.42
2018-04-08T12:51:28.859Z,24.39
2018-04-08T12:52:29.022Z,23.41
2018-04-08T12:53:29.184Z,24.57
2018-04-08T12:54:29.343Z,24.48